Time;durP1;ratioP1;P1;durP2;ratioP2;P2;SDS_P1;SDS_P2;PMS_P1;PMS_P2;Temp;Humidity;BMP_temperature;BMP_pressure;BME280_temperature;BME280_humidity;BME280_pressure;Samples;Min_cycle;Max_cycle;Signal;HPM_P1;HPM_P2
2022/09/08 00:00:46;;;;;;;11.52;3.35;;;18.30;84.60;;;;;;4972163;28;20544;-75
2022/09/08 00:03:14;;;;;;;9.77;3.05;;;18.30;84.80;;;;;;4964064;28;20413;-74
2022/09/08 00:05:50;;;;;;;10.18;3.10;;;18.20;85.20;;;;;;4950996;28;20418;-73
2022/09/08 00:08:20;;;;;;;10.18;2.63;;;18.10;85.40;;;;;;4954107;28;21077;-74
2022/09/08 00:10:47;;;;;;;9.48;3.13;;;18.10;86.00;;;;;;4955182;28;20045;-74
2022/09/08 00:13:13;;;;;;;9.85;2.90;;;18.00;86.10;;;;;;4959431;28;20054;-74
2022/09/08 00:15:39;;;;;;;11.15;3.20;;;18.00;86.60;;;;;;4954417;28;20386;-76
2022/09/08 00:18:06;;;;;;;10.15;3.40;;;18.00;87.00;;;;;;4960030;28;20042;-75
2022/09/08 00:20:32;;;;;;;7.72;2.90;;;18.00;87.00;;;;;;4967554;28;20041;-75
2022/09/08 00:22:57;;;;;;;8.20;3.67;;;18.10;87.10;;;;;;4972699;28;20101;-76
2022/09/08 00:25:23;;;;;;;10.63;2.90;;;18.00;86.70;;;;;;4970103;28;20038;-73
2022/09/08 00:27:49;;;;;;;9.25;3.15;;;18.00;86.90;;;;;;4969144;28;20642;-74
2022/09/08 00:30:14;;;;;;;10.52;3.20;;;17.90;87.10;;;;;;4970782;28;20431;-73
2022/09/08 00:32:40;;;;;;;11.00;3.35;;;17.90;87.20;;;;;;4971453;28;20607;-74
2022/09/08 00:35:08;;;;;;;9.20;3.60;;;17.90;87.30;;;;;;4966960;28;20101;-73
2022/09/08 00:37:36;;;;;;;10.65;3.90;;;17.90;87.30;;;;;;4970189;28;20074;-73
2022/09/08 00:40:02;;;;;;;7.97;3.63;;;17.90;87.30;;;;;;4964835;28;20109;-76
2022/09/08 00:42:28;;;;;;;12.27;3.90;;;17.80;87.60;;;;;;4969087;28;20145;-74
2022/09/08 00:44:54;;;;;;;8.77;3.65;;;17.80;87.70;;;;;;4965665;28;20143;-74
2022/09/08 00:47:34;;;;;;;11.50;4.13;;;17.80;87.90;;;;;;4968910;28;21693;-74
2022/09/08 00:50:12;;;;;;;8.73;3.30;;;17.70;87.80;;;;;;4967788;28;20035;-74
2022/09/08 00:52:52;;;;;;;7.93;3.63;;;17.70;87.90;;;;;;4979669;28;20069;-74
2022/09/08 00:55:19;;;;;;;9.45;3.30;;;17.70;88.00;;;;;;4975351;28;20691;-73
2022/09/08 00:57:45;;;;;;;11.55;4.03;;;17.70;87.80;;;;;;4978082;28;20410;-74
2022/09/08 01:00:16;;;;;;;12.57;4.15;;;17.70;88.00;;;;;;4971804;28;20498;-75
2022/09/08 01:02:44;;;;;;;8.02;3.50;;;17.70;88.10;;;;;;4962982;28;20056;-74
2022/09/08 01:05:16;;;;;;;13.10;3.55;;;17.70;88.00;;;;;;4966308;28;20031;-75
2022/09/08 01:13:58;;;;;;;10.18;3.17;;;17.70;88.20;;;;;;4969784;28;20054;-74
2022/09/08 01:16:24;;;;;;;9.07;3.30;;;17.70;88.10;;;;;;4967953;28;20100;-74
2022/09/08 01:18:50;;;;;;;8.52;3.72;;;17.60;87.90;;;;;;4970474;28;20378;-73
2022/09/08 01:21:26;;;;;;;8.63;3.47;;;17.60;88.10;;;;;;4968736;28;20050;-76
2022/09/08 01:24:03;;;;;;;8.07;3.30;;;17.60;87.90;;;;;;4968699;28;20434;-74
2022/09/08 01:26:50;;;;;;;10.13;3.67;;;17.60;88.30;;;;;;4967958;28;20062;-73
2022/09/08 01:29:17;;;;;;;10.13;4.05;;;17.60;88.30;;;;;;4954011;28;20042;-74
2022/09/08 01:31:45;;;;;;;8.95;3.58;;;17.60;88.20;;;;;;4949473;28;20054;-74
2022/09/08 01:34:11;;;;;;;9.57;3.53;;;17.50;88.20;;;;;;4956165;28;20049;-74
2022/09/08 01:36:37;;;;;;;9.60;3.50;;;17.50;88.50;;;;;;4969934;28;20062;-76
2022/09/08 01:39:02;;;;;;;11.30;3.85;;;17.50;88.30;;;;;;4970057;28;20486;-74
2022/09/08 01:41:28;;;;;;;7.13;3.63;;;17.50;88.30;;;;;;4972439;28;20042;-74
2022/09/08 01:43:54;;;;;;;8.57;3.92;;;17.50;88.40;;;;;;4954557;28;20126;-74
2022/09/08 01:46:20;;;;;;;9.43;3.25;;;17.40;88.30;;;;;;4951718;28;20397;-74
2022/09/08 01:48:45;;;;;;;8.82;3.50;;;17.40;88.30;;;;;;4956188;28;20042;-74
2022/09/08 01:51:11;;;;;;;9.90;4.43;;;17.40;88.30;;;;;;4970823;28;20104;-74
2022/09/08 01:53:37;;;;;;;8.30;3.15;;;17.40;88.20;;;;;;4971603;28;20052;-74
2022/09/08 01:56:07;;;;;;;9.07;3.45;;;17.40;88.10;;;;;;4972142;28;20516;-73
2022/09/08 01:58:34;;;;;;;7.50;2.72;;;17.50;88.10;;;;;;4963524;28;20160;-74
2022/09/08 02:00:59;;;;;;;9.05;3.50;;;17.50;88.00;;;;;;4976676;28;20039;-73
2022/09/08 02:03:25;;;;;;;9.77;3.38;;;17.40;88.20;;;;;;4971814;28;20049;-73
2022/09/08 02:05:52;;;;;;;7.78;3.33;;;17.40;88.40;;;;;;4973124;28;20122;-74
2022/09/08 02:08:17;;;;;;;9.98;3.00;;;17.40;88.60;;;;;;4970815;28;20568;-74
2022/09/08 02:10:55;;;;;;;8.85;3.33;;;17.40;88.50;;;;;;4972197;28;20106;-73
2022/09/08 02:13:20;;;;;;;9.60;3.40;;;17.40;88.50;;;;;;4970218;28;20042;-76
2022/09/08 02:15:46;;;;;;;8.77;3.35;;;17.40;88.40;;;;;;4969764;28;20491;-74
2022/09/08 02:18:12;;;;;;;9.63;3.40;;;17.40;88.40;;;;;;4969420;28;20478;-74
2022/09/08 02:20:37;;;;;;;10.60;3.28;;;17.40;88.40;;;;;;4972560;28;20077;-75
2022/09/08 02:23:03;;;;;;;9.50;3.53;;;17.40;88.40;;;;;;4961424;28;20057;-75
2022/09/08 02:25:29;;;;;;;7.93;3.55;;;17.30;88.60;;;;;;4971692;28;21217;-73
2022/09/08 02:27:54;;;;;;;7.53;3.20;;;17.30;88.50;;;;;;4969716;28;20065;-74
2022/09/08 02:30:22;;;;;;;6.95;2.85;;;17.30;88.60;;;;;;4973578;28;20218;-75
2022/09/08 02:32:49;;;;;;;7.93;2.75;;;17.30;88.60;;;;;;4970702;28;20046;-73
2022/09/08 02:35:15;;;;;;;8.30;3.40;;;17.20;88.60;;;;;;4968197;28;20038;-74
2022/09/08 02:37:41;;;;;;;7.30;3.40;;;17.30;88.50;;;;;;4970566;28;20261;-74
2022/09/08 02:40:07;;;;;;;9.32;3.03;;;17.30;88.60;;;;;;4973235;28;20034;-75
2022/09/08 02:42:33;;;;;;;8.93;3.78;;;17.20;88.80;;;;;;4969210;28;20039;-75
2022/09/08 02:44:58;;;;;;;11.18;3.38;;;17.30;88.70;;;;;;4968069;28;20061;-75
2022/09/08 02:47:24;;;;;;;12.48;3.58;;;17.20;88.60;;;;;;4967830;28;20878;-74
2022/09/08 02:49:50;;;;;;;7.72;3.55;;;17.20;88.50;;;;;;4971586;28;20042;-74
2022/09/08 02:52:16;;;;;;;7.95;3.08;;;17.20;88.30;;;;;;4967104;28;20598;-74
2022/09/08 02:54:41;;;;;;;10.05;3.20;;;17.20;88.60;;;;;;4967881;28;20034;-74
2022/09/08 02:57:07;;;;;;;8.45;3.05;;;17.20;88.60;;;;;;4969702;28;20521;-75
2022/09/08 02:59:32;;;;;;;9.18;3.60;;;17.20;88.30;;;;;;4970862;28;20546;-74
2022/09/08 03:01:58;;;;;;;9.25;3.42;;;17.20;88.30;;;;;;4968388;28;20035;-75
2022/09/08 03:04:25;;;;;;;9.23;3.03;;;17.10;88.30;;;;;;4970752;28;20556;-75
2022/09/08 03:06:51;;;;;;;7.85;3.20;;;17.20;88.40;;;;;;4969702;28;20034;-76
2022/09/08 03:09:17;;;;;;;8.95;3.45;;;17.10;88.40;;;;;;4967767;28;20386;-75
2022/09/08 03:11:42;;;;;;;8.88;3.28;;;17.10;88.40;;;;;;4971685;28;20050;-76
2022/09/08 03:14:09;;;;;;;8.50;2.80;;;17.10;88.40;;;;;;4970507;28;20193;-74
2022/09/08 03:16:35;;;;;;;6.90;3.25;;;17.10;88.50;;;;;;4969730;28;20213;-75
2022/09/08 03:19:01;;;;;;;11.40;4.00;;;17.00;88.40;;;;;;4968472;28;20038;-74
2022/09/08 03:21:26;;;;;;;7.03;2.55;;;17.00;88.50;;;;;;4970409;28;20411;-75
2022/09/08 03:23:53;;;;;;;7.45;2.85;;;17.00;88.50;;;;;;4970466;28;20093;-74
2022/09/08 03:26:22;;;;;;;7.60;3.05;;;16.90;88.60;;;;;;4969730;28;20050;-74
2022/09/08 03:28:48;;;;;;;6.78;2.72;;;16.90;88.50;;;;;;4970798;28;20042;-76
2022/09/08 03:31:16;;;;;;;7.55;3.28;;;16.90;88.50;;;;;;4970074;28;20041;-76
2022/09/08 03:33:43;;;;;;;7.97;3.05;;;16.90;88.50;;;;;;4970643;28;20042;-75
2022/09/08 03:36:11;;;;;;;11.70;3.08;;;16.90;88.40;;;;;;4970248;28;20057;-74
2022/09/08 03:38:36;;;;;;;8.73;3.03;;;16.90;88.50;;;;;;4968481;28;20045;-74
2022/09/08 03:41:12;;;;;;;6.75;3.03;;;16.90;88.30;;;;;;4969636;28;20042;-76
2022/09/08 03:43:43;;;;;;;7.97;3.50;;;16.90;88.40;;;;;;4970533;28;20038;-77
2022/09/08 03:46:08;;;;;;;8.32;3.40;;;16.90;88.50;;;;;;4970379;28;20046;-74
2022/09/08 03:48:35;;;;;;;8.27;3.33;;;16.80;88.40;;;;;;4970179;28;20042;-73
2022/09/08 03:51:22;;;;;;;9.77;3.63;;;16.90;88.30;;;;;;4971113;28;20038;-74
2022/09/08 03:53:47;;;;;;;9.43;3.60;;;16.90;88.40;;;;;;4962972;28;20069;-75
2022/09/08 03:56:13;;;;;;;6.88;3.20;;;16.90;88.30;;;;;;4968188;28;20133;-74
2022/09/08 03:58:39;;;;;;;8.93;3.35;;;16.90;88.30;;;;;;4970316;28;20035;-72
2022/09/08 04:01:15;;;;;;;8.65;3.58;;;16.80;88.10;;;;;;4969779;28;20104;-76
2022/09/08 04:03:41;;;;;;;8.60;3.40;;;17.00;88.20;;;;;;4968227;28;20066;-76
2022/09/08 04:06:06;;;;;;;7.40;3.05;;;16.90;88.10;;;;;;4967429;28;20042;-75
2022/09/08 04:08:32;;;;;;;9.48;3.92;;;16.90;87.90;;;;;;4966067;28;20509;-76
2022/09/08 04:10:58;;;;;;;10.05;4.10;;;16.90;88.10;;;;;;4970270;28;20108;-75
2022/09/08 04:13:24;;;;;;;10.02;3.67;;;16.80;87.90;;;;;;4968543;28;20105;-75
2022/09/08 04:15:50;;;;;;;9.80;3.63;;;16.90;88.00;;;;;;4969421;28;20051;-74
2022/09/08 04:18:16;;;;;;;9.63;3.65;;;16.90;87.90;;;;;;4971098;28;20469;-76
2022/09/08 04:20:41;;;;;;;7.03;3.30;;;16.90;88.00;;;;;;4969760;28;20079;-75
2022/09/08 04:23:08;;;;;;;9.48;3.42;;;16.90;87.90;;;;;;4968672;28;20118;-74
2022/09/08 04:25:33;;;;;;;9.55;4.03;;;16.90;87.90;;;;;;4967033;28;21168;-74
2022/09/08 04:27:59;;;;;;;9.40;4.00;;;16.90;87.80;;;;;;4968143;28;20367;-74
2022/09/08 04:30:25;;;;;;;8.98;3.88;;;16.80;87.90;;;;;;4968672;28;20050;-75
2022/09/08 04:32:51;;;;;;;9.38;3.85;;;16.80;87.90;;;;;;4962297;28;20043;-74
2022/09/08 04:35:16;;;;;;;10.43;3.70;;;16.80;88.10;;;;;;4946663;28;20053;-74
2022/09/08 04:37:42;;;;;;;9.32;4.30;;;16.80;88.20;;;;;;4952764;28;20050;-75
2022/09/08 04:40:08;;;;;;;9.05;4.70;;;16.80;88.20;;;;;;4953649;28;20026;-74
2022/09/08 04:42:35;;;;;;;11.18;4.80;;;16.90;88.10;;;;;;4952109;28;20124;-74
2022/09/08 04:45:01;;;;;;;11.80;5.57;;;16.90;88.20;;;;;;4946008;28;20438;-74
2022/09/08 04:47:27;;;;;;;10.40;5.15;;;16.90;88.20;;;;;;4970258;28;20042;-74
2022/09/08 04:49:53;;;;;;;10.23;5.30;;;16.90;88.20;;;;;;4969410;28;20078;-75
2022/09/08 04:52:24;;;;;;;11.50;6.50;;;16.90;88.40;;;;;;4967580;28;20156;-74
2022/09/08 04:54:49;;;;;;;12.73;5.93;;;16.90;88.30;;;;;;4970425;28;20034;-75
2022/09/08 04:57:15;;;;;;;11.55;6.13;;;16.80;88.40;;;;;;4967679;28;20054;-74
2022/09/08 04:59:41;;;;;;;9.43;6.10;;;16.90;88.50;;;;;;4967282;28;20038;-74
2022/09/08 05:02:07;;;;;;;11.20;5.80;;;16.90;88.40;;;;;;4968846;28;20386;-75
2022/09/08 05:04:32;;;;;;;10.40;6.25;;;16.90;88.50;;;;;;4967172;28;20161;-74
2022/09/08 05:06:58;;;;;;;10.55;6.47;;;16.90;88.40;;;;;;4969130;28;20044;-75
2022/09/08 05:09:24;;;;;;;14.10;6.50;;;16.90;88.40;;;;;;4968820;28;20105;-74
2022/09/08 05:11:49;;;;;;;9.63;6.20;;;16.80;88.30;;;;;;4968787;28;20039;-75
2022/09/08 05:14:15;;;;;;;12.05;6.22;;;16.90;88.40;;;;;;4966073;28;20068;-76
2022/09/08 05:16:41;;;;;;;11.27;6.43;;;16.90;88.30;;;;;;4972369;28;20554;-74
2022/09/08 05:19:07;;;;;;;13.07;6.20;;;16.80;88.50;;;;;;4966551;28;20042;-75
2022/09/08 05:21:35;;;;;;;10.50;6.00;;;16.80;88.50;;;;;;4970155;28;20070;-74
2022/09/08 05:24:02;;;;;;;10.27;6.32;;;16.80;88.40;;;;;;4972978;28;20069;-73
2022/09/08 05:26:29;;;;;;;15.23;7.00;;;16.70;88.40;;;;;;4970066;28;20603;-73
2022/09/08 05:28:55;;;;;;;10.38;6.30;;;16.70;88.40;;;;;;4970557;28;20135;-74
2022/09/08 05:31:23;;;;;;;11.55;6.22;;;16.60;88.50;;;;;;4971384;28;20041;-76
2022/09/08 05:33:50;;;;;;;11.70;6.65;;;16.70;88.50;;;;;;4971118;28;20497;-75
2022/09/08 05:36:21;;;;;;;10.88;6.63;;;16.60;88.60;;;;;;4970908;28;20057;-74
2022/09/08 05:38:47;;;;;;;11.77;6.68;;;16.60;88.70;;;;;;4970813;28;20035;-74
2022/09/08 05:41:14;;;;;;;12.18;6.55;;;16.70;88.80;;;;;;4972548;28;20038;-76
2022/09/08 05:43:40;;;;;;;12.30;6.50;;;16.70;88.90;;;;;;4970216;28;20050;-74
2022/09/08 05:46:06;;;;;;;11.98;6.03;;;16.70;88.80;;;;;;4971758;28;20042;-75
2022/09/08 05:48:32;;;;;;;14.45;7.32;;;16.70;88.70;;;;;;4980983;28;20500;-73
2022/09/08 05:50:58;;;;;;;13.45;6.40;;;16.80;88.60;;;;;;4986594;28;20031;-75
2022/09/08 05:53:24;;;;;;;11.52;6.50;;;16.80;88.60;;;;;;4984215;28;20041;-76
2022/09/08 05:56:02;;;;;;;12.18;6.15;;;16.80;88.50;;;;;;4985400;28;20100;-75
2022/09/08 05:58:29;;;;;;;16.00;6.90;;;16.80;88.60;;;;;;4962708;28;20046;-75
2022/09/08 06:01:04;;;;;;;12.50;6.60;;;16.90;88.40;;;;;;4966098;28;20027;-74
2022/09/08 06:03:29;;;;;;;12.52;6.20;;;16.80;88.00;;;;;;4964188;28;20034;-74
2022/09/08 06:06:01;;;;;;;10.05;5.47;;;16.90;88.00;;;;;;4962850;28;20423;-76
2022/09/08 06:08:26;;;;;;;11.23;5.60;;;16.90;87.90;;;;;;4973230;28;20474;-73
2022/09/08 06:10:52;;;;;;;11.88;5.45;;;16.90;88.00;;;;;;4966105;28;20027;-74
2022/09/08 06:13:21;;;;;;;10.57;5.50;;;16.90;87.70;;;;;;4962093;28;20676;-72
2022/09/08 06:15:48;;;;;;;10.45;5.25;;;17.00;87.50;;;;;;4965707;28;20045;-73
2022/09/08 06:18:15;;;;;;;9.88;5.28;;;17.00;87.20;;;;;;4974959;28;20039;-82
2022/09/08 06:20:40;;;;;;;12.27;5.68;;;17.10;87.00;;;;;;4964114;28;20367;-78
2022/09/08 06:23:06;;;;;;;11.80;5.55;;;17.20;86.80;;;;;;4960329;28;20058;-76
2022/09/08 06:25:41;;;;;;;10.50;5.47;;;17.20;86.30;;;;;;4962993;28;20030;-75
2022/09/08 06:28:21;;;;;;;12.48;5.97;;;17.30;86.10;;;;;;4963682;28;20030;-74
2022/09/08 06:30:50;;;;;;;8.82;5.47;;;17.30;85.30;;;;;;4962657;28;20423;-78
2022/09/08 06:33:27;;;;;;;7.78;5.05;;;17.30;85.30;;;;;;4965692;28;20133;-76
2022/09/08 06:36:13;;;;;;;12.18;5.57;;;17.50;85.70;;;;;;4978110;28;20410;-75
2022/09/08 06:38:59;;;;;;;16.35;5.72;;;17.50;85.20;;;;;;4983766;28;20027;-75
2022/09/08 06:41:31;;;;;;;18.10;6.18;;;17.50;84.50;;;;;;4976914;28;20771;-75
2022/09/08 06:44:02;;;;;;;11.20;5.35;;;17.50;84.50;;;;;;4983146;28;20101;-74
2022/09/08 06:46:32;;;;;;;11.40;5.55;;;17.50;84.70;;;;;;4980384;28;20134;-77
2022/09/08 06:48:59;;;;;;;11.77;5.28;;;17.50;84.60;;;;;;4984735;28;20050;-76
2022/09/08 06:51:46;;;;;;;12.85;5.20;;;17.60;84.20;;;;;;4984618;28;20097;-74
2022/09/08 06:54:34;;;;;;;14.50;4.93;;;17.60;83.60;;;;;;4983245;28;20030;-75
2022/09/08 06:57:20;;;;;;;19.67;4.38;;;17.60;83.80;;;;;;4983597;28;20054;-87
2022/09/08 07:00:01;;;;;;;10.73;4.60;;;17.70;83.90;;;;;;4978919;28;20038;-76
2022/09/08 07:02:48;;;;;;;9.82;4.32;;;17.90;83.10;;;;;;4964663;28;20085;-75
2022/09/08 07:05:31;;;;;;;10.82;4.68;;;18.00;82.70;;;;;;4967482;28;20146;-75
2022/09/08 07:07:57;;;;;;;9.73;3.95;;;18.00;82.60;;;;;;4961759;28;20053;-77
2022/09/08 07:10:35;;;;;;;10.32;4.45;;;18.10;82.10;;;;;;4958688;28;20047;-78
2022/09/08 07:13:00;;;;;;;13.68;4.40;;;18.10;82.20;;;;;;4956441;28;20127;-76
2022/09/08 07:15:36;;;;;;;9.90;4.15;;;18.30;81.60;;;;;;4955492;28;20546;-76
2022/09/08 07:18:41;;;;;;;9.80;4.40;;;18.50;81.00;;;;;;4954558;28;20050;-82
2022/09/08 07:21:27;;;;;;;11.07;5.03;;;18.40;80.80;;;;;;4957348;28;20475;-76
2022/09/08 07:23:57;;;;;;;11.43;4.18;;;18.50;80.90;;;;;;4959390;28;20042;-78
2022/09/08 07:26:41;;;;;;;11.23;3.95;;;18.50;80.10;;;;;;4961093;28;20038;-87
2022/09/08 07:29:29;;;;;;;10.35;3.80;;;18.60;80.40;;;;;;4961435;28;20122;-76
2022/09/08 07:31:57;;;;;;;8.30;3.97;;;18.60;79.80;;;;;;4958813;28;20027;-78
2022/09/08 07:34:35;;;;;;;8.38;3.33;;;18.70;79.40;;;;;;4959968;28;20062;-76
2022/09/08 07:37:27;;;;;;;10.80;3.63;;;18.80;78.90;;;;;;4964575;28;20038;-76
2022/09/08 07:40:16;;;;;;;12.25;3.63;;;18.80;78.60;;;;;;4978388;28;20537;-81
2022/09/08 07:42:42;;;;;;;7.75;3.28;;;19.10;77.50;;;;;;4960404;28;20478;-75
2022/09/08 07:45:11;;;;;;;10.80;3.72;;;19.20;77.30;;;;;;4959014;28;20162;-74
2022/09/08 07:47:50;;;;;;;7.28;3.10;;;19.40;77.30;;;;;;4964278;28;20134;-75
2022/09/08 07:53:58;;;;;;;8.50;3.50;;;19.70;74.90;;;;;;4964419;28;20045;-76
2022/09/08 07:56:56;;;;;;;9.30;3.55;;;19.70;75.20;;;;;;4941941;28;20048;-80
2022/09/08 07:59:37;;;;;;;9.77;3.22;;;19.70;74.80;;;;;;4961760;28;20631;-79
2022/09/08 08:02:23;;;;;;;10.15;3.35;;;20.10;74.30;;;;;;4964073;28;20085;-79
2022/09/08 08:05:18;;;;;;;6.93;3.05;;;20.00;73.40;;;;;;4982260;28;20070;-75
2022/09/08 08:07:52;;;;;;;10.30;3.15;;;19.80;74.30;;;;;;4985428;28;20064;-76
2022/09/08 08:10:24;;;;;;;;;;;20.10;73.80;;;;;;4983096;28;20456;-75
2022/09/08 08:12:57;;;;;;;9.98;2.65;;;20.30;73.20;;;;;;4988688;28;19957;-77
2022/09/08 08:15:35;;;;;;;7.97;2.45;;;20.30;72.70;;;;;;4985259;28;20128;-76
2022/09/08 08:18:24;;;;;;;8.52;2.88;;;20.50;71.80;;;;;;4984220;28;20124;-81
2022/09/08 08:21:26;;;;;;;12.13;2.80;;;20.60;72.20;;;;;;4983574;28;20042;-76
2022/09/08 08:24:26;;;;;;;12.45;2.70;;;20.60;71.10;;;;;;4982247;28;20100;-75
2022/09/08 08:27:04;;;;;;;9.93;2.63;;;20.50;71.50;;;;;;4974298;28;20039;-76
2022/09/08 08:29:48;;;;;;;11.27;2.63;;;20.70;70.20;;;;;;4983023;28;20037;-74
2022/09/08 08:32:40;;;;;;;9.48;2.75;;;20.90;69.70;;;;;;4981416;28;20041;-74
2022/09/08 08:35:22;;;;;;;7.57;2.55;;;20.80;69.50;;;;;;4976051;28;20114;-76
2022/09/08 08:37:49;;;;;;;9.05;3.08;;;20.70;69.30;;;;;;4985853;28;20048;-75
2022/09/08 08:40:30;;;;;;;8.52;3.05;;;20.50;69.70;;;;;;4989800;28;20061;-83
2022/09/08 08:43:24;;;;;;;11.50;3.55;;;20.40;70.60;;;;;;4985092;28;20034;-79
2022/09/08 08:46:13;;;;;;;10.93;3.75;;;20.60;71.10;;;;;;4965054;28;20047;-76
2022/09/08 08:49:04;;;;;;;9.52;3.53;;;20.90;70.30;;;;;;4966517;28;20031;-80
2022/09/08 08:51:44;;;;;;;11.52;4.97;;;21.10;69.50;;;;;;4960538;28;20030;-76
2022/09/08 08:54:47;;;;;;;12.07;4.22;;;21.40;67.70;;;;;;4957455;28;20404;-75
2022/09/08 08:57:44;;;;;;;11.65;4.13;;;21.70;67.00;;;;;;4960134;28;20098;-75
2022/09/08 09:00:20;;;;;;;9.52;4.60;;;22.10;65.80;;;;;;4956309;28;20031;-76
2022/09/08 09:03:09;;;;;;;11.55;3.17;;;22.40;64.70;;;;;;4967992;28;20073;-75
2022/09/08 09:05:47;;;;;;;12.95;3.42;;;22.20;63.70;;;;;;4980121;28;20121;-76
2022/09/08 09:08:31;;;;;;;11.10;2.97;;;21.90;64.90;;;;;;4983273;28;20129;-74
2022/09/08 09:11:39;;;;;;;9.80;3.05;;;22.10;64.80;;;;;;4976741;28;20480;-78
2022/09/08 09:14:46;;;;;;;9.82;2.08;;;22.10;63.00;;;;;;4965978;28;20109;-78
2022/09/08 09:17:39;;;;;;;12.82;2.95;;;21.70;62.50;;;;;;4986128;28;20049;-79
2022/09/08 09:20:36;;;;;;;8.40;2.50;;;21.20;64.30;;;;;;4982207;28;20483;-82
2022/09/08 09:23:11;;;;;;;8.93;2.83;;;21.10;65.20;;;;;;4984874;28;20130;-78
2022/09/08 09:26:00;;;;;;;10.20;2.83;;;21.00;66.70;;;;;;4983881;28;20042;-84
2022/09/08 09:28:34;;;;;;;8.13;2.70;;;21.40;65.80;;;;;;4981057;28;20030;-77
2022/09/08 09:31:16;;;;;;;8.57;2.72;;;21.30;65.80;;;;;;4985195;28;20042;-75
2022/09/08 09:33:56;;;;;;;9.80;2.72;;;21.00;65.50;;;;;;4983962;28;20038;-78
2022/09/08 09:36:28;;;;;;;9.23;2.75;;;21.30;65.20;;;;;;4986051;28;20057;-77
2022/09/08 09:39:34;;;;;;;9.50;2.35;;;21.60;64.30;;;;;;4979776;28;20034;-77
2022/09/08 09:42:21;;;;;;;11.00;3.17;;;21.70;64.40;;;;;;4963994;28;20050;-82
2022/09/08 09:45:03;;;;;;;8.70;2.60;;;22.10;63.50;;;;;;4981927;28;20071;-79
2022/09/08 09:47:50;;;;;;;9.05;2.70;;;22.20;62.80;;;;;;4965224;28;20036;-74
2022/09/08 09:50:36;;;;;;;13.18;3.17;;;22.50;63.00;;;;;;4966054;28;20039;-74
2022/09/08 09:53:27;;;;;;;11.73;2.72;;;22.60;61.60;;;;;;4972441;28;20466;-78
2022/09/08 09:56:27;;;;;;;12.13;2.65;;;22.40;62.50;;;;;;4955591;28;20113;-83
2022/09/08 09:59:20;;;;;;;11.45;2.70;;;22.90;60.40;;;;;;4991526;28;20496;-76
2022/09/08 10:01:55;;;;;;;9.43;2.20;;;23.10;58.80;;;;;;4979771;28;20499;-75
2022/09/08 10:04:45;;;;;;;9.50;2.33;;;23.10;58.30;;;;;;4967571;28;21059;-84
2022/09/08 10:07:26;;;;;;;9.40;1.95;;;22.80;58.70;;;;;;4957619;28;20026;-77
2022/09/08 10:10:13;;;;;;;6.13;1.95;;;22.70;60.00;;;;;;4973948;28;20027;-76
2022/09/08 10:13:13;;;;;;;8.38;2.10;;;23.10;58.80;;;;;;4985203;28;20053;-73
2022/09/08 10:16:05;;;;;;;11.25;1.90;;;23.40;57.90;;;;;;4979336;28;20065;-74
2022/09/08 10:19:05;;;;;;;7.32;2.28;;;23.60;58.30;;;;;;4958092;28;20043;-76
2022/09/08 10:21:49;;;;;;;5.60;1.90;;;23.80;57.40;;;;;;4958483;28;20029;-74
2022/09/08 10:24:47;;;;;;;8.77;2.30;;;24.10;56.20;;;;;;4958643;28;20117;-78
2022/09/08 10:27:45;;;;;;;6.43;1.70;;;24.30;55.50;;;;;;4959600;28;20038;-74
2022/09/08 10:30:35;;;;;;;5.93;1.73;;;24.20;55.20;;;;;;4956707;28;20035;-81
2022/09/08 10:33:25;;;;;;;8.90;2.20;;;23.90;55.00;;;;;;4959766;28;20039;-80
2022/09/08 10:36:19;;;;;;;8.95;1.83;;;24.00;55.40;;;;;;4977288;28;20042;-80
2022/09/08 10:39:04;;;;;;;8.23;1.97;;;24.00;55.50;;;;;;4977861;28;20031;-75
2022/09/08 10:41:52;;;;;;;6.13;1.70;;;24.30;55.30;;;;;;4977931;28;20273;-79
2022/09/08 10:44:38;;;;;;;9.20;2.00;;;23.90;54.30;;;;;;4977067;28;20047;-78
2022/09/08 10:47:44;;;;;;;6.43;2.15;;;23.70;56.30;;;;;;4979474;28;20035;-76
2022/09/08 10:50:20;;;;;;;9.00;2.28;;;24.00;56.80;;;;;;4975795;28;20041;-81
2022/09/08 10:53:17;;;;;;;6.20;1.80;;;24.10;55.80;;;;;;4977226;28;20034;-78
2022/09/08 10:56:05;;;;;;;8.57;2.30;;;24.00;55.60;;;;;;4955026;28;20102;-77
2022/09/08 10:58:42;;;;;;;8.23;2.00;;;23.60;56.30;;;;;;4954584;28;20114;-77
2022/09/08 11:01:40;;;;;;;5.80;2.03;;;23.30;57.40;;;;;;4953546;28;20031;-82
2022/09/08 11:04:23;;;;;;;8.02;2.22;;;23.10;58.20;;;;;;4959191;28;20097;-82
2022/09/08 11:07:01;;;;;;;9.07;2.13;;;23.20;58.30;;;;;;4958459;28;20081;-76
2022/09/08 11:09:36;;;;;;;8.35;2.00;;;23.30;58.70;;;;;;4959182;28;20299;-80
2022/09/08 11:12:32;;;;;;;6.82;1.63;;;23.30;57.60;;;;;;4957127;28;20078;-81
2022/09/08 11:15:22;;;;;;;7.70;1.73;;;23.10;58.30;;;;;;4969078;28;20050;-81
2022/09/08 11:17:50;;;;;;;7.97;1.90;;;22.80;60.80;;;;;;4959111;28;20073;-78
2022/09/08 11:20:18;;;;;;;9.13;2.08;;;22.60;60.10;;;;;;4958744;28;20365;-83
2022/09/08 11:22:57;;;;;;;7.47;1.70;;;22.60;61.80;;;;;;4960510;28;20035;-83
2022/09/08 11:26:03;;;;;;;9.25;2.28;;;22.50;61.60;;;;;;4953736;28;20066;-77
2022/09/08 11:29:02;;;;;;;7.47;1.70;;;22.20;60.90;;;;;;4949545;28;20553;-77
2022/09/08 11:31:37;;;;;;;9.80;2.88;;;21.60;64.30;;;;;;4957979;28;20058;-77
2022/09/08 11:34:36;;;;;;;10.15;2.55;;;21.20;69.60;;;;;;4954443;28;20039;-77
2022/09/08 11:37:12;;;;;;;5.85;1.73;;;20.90;73.00;;;;;;4974451;28;20134;-76
2022/09/08 11:39:56;;;;;;;6.32;1.77;;;20.50;75.80;;;;;;4983913;28;20035;-81
2022/09/08 11:43:09;;;;;;;8.25;2.50;;;20.10;76.50;;;;;;4981112;28;20377;-79
2022/09/08 11:46:03;;;;;;;6.95;1.73;;;19.70;79.20;;;;;;4979831;28;20507;-79
2022/09/08 11:48:49;;;;;;;10.52;2.45;;;19.80;79.80;;;;;;4972860;28;20286;-78
2022/09/08 11:51:24;;;;;;;11.55;2.53;;;19.90;79.50;;;;;;4977942;28;20482;-79
2022/09/08 11:54:29;;;;;;;9.40;2.80;;;20.10;79.90;;;;;;4982593;28;20027;-77
2022/09/08 11:57:27;;;;;;;8.95;2.58;;;20.50;79.80;;;;;;4961489;28;20750;-78
2022/09/08 12:00:13;;;;;;;10.23;2.60;;;20.90;76.40;;;;;;4960046;28;20035;-78
2022/09/08 12:03:00;;;;;;;9.27;2.80;;;21.40;77.10;;;;;;4961724;28;20062;-82
2022/09/08 12:06:16;;;;;;;9.32;2.28;;;22.00;73.50;;;;;;4960533;28;20097;-80
2022/09/08 12:08:51;;;;;;;8.55;2.67;;;22.20;70.40;;;;;;4956506;28;20110;-83
2022/09/08 12:11:50;;;;;;;8.32;2.10;;;22.80;70.50;;;;;;4955065;28;20066;-82
2022/09/08 12:14:22;;;;;;;9.25;2.40;;;23.10;67.90;;;;;;4954549;28;20047;-82
2022/09/08 12:17:06;;;;;;;11.13;2.65;;;22.90;66.40;;;;;;4979015;28;20034;-80
2022/09/08 12:19:54;;;;;;;8.30;2.17;;;22.80;67.20;;;;;;4974500;28;20109;-82
2022/09/08 12:22:27;;;;;;;9.82;2.40;;;22.80;67.80;;;;;;4976216;28;20112;-81
2022/09/08 12:25:26;;;;;;;11.67;2.40;;;22.60;68.70;;;;;;4978094;28;20057;-81
2022/09/08 12:28:07;;;;;;;10.10;2.97;;;22.50;69.40;;;;;;4959755;28;20026;-83
2022/09/08 12:31:04;;;;;;;7.20;2.20;;;22.60;69.00;;;;;;4966276;28;20038;-82
2022/09/08 12:34:00;;;;;;;7.65;2.10;;;23.00;65.50;;;;;;4952795;28;20686;-80
2022/09/08 12:36:37;;;;;;;8.68;2.13;;;23.50;63.50;;;;;;4973034;28;20378;-82
2022/09/08 12:39:04;;;;;;;6.65;1.90;;;23.70;62.40;;;;;;4979577;28;20034;-79
2022/09/08 12:41:58;;;;;;;7.95;2.17;;;23.80;62.00;;;;;;4979234;28;20161;-82
2022/09/08 12:44:59;;;;;;;8.43;2.17;;;24.10;60.00;;;;;;4981238;28;20054;-80
2022/09/08 12:47:43;;;;;;;6.03;1.95;;;24.40;60.30;;;;;;4978704;28;20031;-80
2022/09/08 12:50:37;;;;;;;6.50;2.10;;;24.80;59.10;;;;;;4977971;28;20037;-79
2022/09/08 12:53:05;;;;;;;10.40;2.45;;;25.10;59.50;;;;;;4978320;28;20132;-79
2022/09/08 12:55:49;;;;;;;11.15;2.50;;;25.20;57.60;;;;;;4980738;28;20117;-79
2022/09/08 12:58:43;;;;;;;11.25;2.97;;;25.10;57.00;;;;;;4978372;28;20038;-81
2022/09/08 13:01:18;;;;;;;8.67;2.03;;;25.00;58.20;;;;;;4977141;28;20113;-82
2022/09/08 13:03:44;;;;;;;8.07;2.00;;;24.80;58.80;;;;;;4981309;28;20297;-79
2022/09/08 13:06:31;;;;;;;9.57;2.00;;;24.60;58.30;;;;;;4972226;28;20535;-79
2022/09/08 13:09:10;;;;;;;12.70;2.20;;;24.70;59.00;;;;;;4977928;28;20031;-81
2022/09/08 13:12:03;;;;;;;9.25;2.13;;;24.80;59.20;;;;;;4956934;28;20220;-81
2022/09/08 13:14:56;;;;;;;7.78;1.95;;;24.60;58.90;;;;;;4953561;28;20062;-80
2022/09/08 13:17:46;;;;;;;6.47;1.63;;;24.60;59.20;;;;;;4960321;28;20039;-81
2022/09/08 13:20:30;;;;;;;9.15;1.85;;;24.50;57.50;;;;;;4959497;28;20382;-82
2022/09/08 13:23:33;;;;;;;6.13;1.63;;;24.50;57.20;;;;;;4956208;28;20470;-84
2022/09/08 13:26:23;;;;;;;8.35;1.75;;;24.40;55.90;;;;;;4960698;28;20081;-80
2022/09/08 13:29:07;;;;;;;5.38;1.52;;;24.10;57.50;;;;;;4968292;28;20260;-79
2022/09/08 13:31:36;;;;;;;8.48;2.00;;;23.90;58.10;;;;;;4963656;28;20182;-80
2022/09/08 13:34:20;;;;;;;7.97;1.70;;;23.90;59.20;;;;;;4962693;28;20140;-80
2022/09/08 13:36:54;;;;;;;7.97;1.60;;;24.10;58.70;;;;;;4955991;28;20734;-81
2022/09/08 13:39:31;;;;;;;8.40;1.70;;;24.40;58.00;;;;;;4958801;28;20034;-82